Parks, AZ

1:19 PM MST on September 30, 2014 (GMT -0700)
Bellemont, AZ | Change Station
CLOSE
Current Station
Personal Weather Station
Location: Bellemont, AZ
Elevation: 7165 ft
Nearby Weather Stations

Elev 7165 ft 35.23 °N, 111.81 °W | Updated 9 seconds ago

Clear
Clear
65.3 °F
Feels Like 65.3 °F
N
3.1
Wind Variable Wind from SSW
Gusts 5.0 mph

Today
High -- | Low -- °F
--% Chance of Precip.
Yesterday
High -- | Low -- °F
Precip. -- in
6:21 AM 6:12 PM
Waxing Crescent, 39% visible
Pressure 29.90 in
Visibility 10.0 miles
Clouds Clear
Dew Point 37 °F
Humidity 35%
Rainfall 0.00 in
Snow Depth 38 in , 0 in , 0 in
UV 8 out of 12
Pollen 5.70 out of 12
Air Quality Not available.
Flu Activity Not available.
METAR KFLG 301957Z VRB05KT 10SM CLR 18/01 A3010 RMK AO2 SLP123 T01830011

More Conditions Fewer Conditions

Pressure 29.90 in
Visibility 10.0 miles
Clouds Clear
Dew Point 37 °F
Humidity 35%
Rainfall 0.00 in
Snow Depth 38 in , 0 in , 0 in
UV 8 out of 12
Pollen 5.70 out of 12
Air Quality Not available.
Flu Activity Not available.
METAR KFLG 301957Z VRB05KT 10SM CLR 18/01 A3010 RMK AO2 SLP123 T01830011

More Conditions Fewer Conditions

10-Day Weather Forecast

Almanac

Astronomy

Sep. 30, 2014 Rise Set
Actual Time 6:21 AM MST 6:12 PM MST
Civil Twilight 5:56 AM MST 6:38 PM MST
Nautical Twilight 5:27 AM MST 7:07 PM MST
Astronomical Twilight 4:57 AM MST 7:37 PM MST
Moon 12:23 PM MST 10:56 PM MST
Length of Visible Light 12h 41m
Length of Day
11h 51m
Tomorrow will be 2m 11s shorter.
Waxing Crescent, 39% of the Moon is Illuminated
Today
Waxing Crescent
Oct 1
First Quarter
Oct 8
Full
Oct 15
Last Quarter
Oct 23
New

Today's Extremes

State Highs State Lows

Community

WunderPhotos

Upload Photos

1,757,738 photos uploaded!

Nearby

Snow Depth

Station Depth Elevation
Beaver Head 38 in 7990 ft
Workman Creek 0 in 6900 ft
Mormon Mountain 0 in 7500 ft

Earthquake Activity

City Distance Mag. Time & Date
No recent earthquake activity has been reported nearby.
Minimum magnitude displayed is 2.5.

Coastal Water Temperatures

Place Temperature
No Stations Reporting

Nearby Weather Stations